sensor_id;sensor_type;location;lat;lon;timestamp;P1;durP1;ratioP1;P2;durP2;ratioP2
4365;SDS011;2196;47.422;9.656;2023-04-15T00:00:42;1.17;;;0.40;;
4365;SDS011;2196;47.422;9.656;2023-04-15T00:03:10;2.00;;;0.50;;
4365;SDS011;2196;47.422;9.656;2023-04-15T00:05:37;0.37;;;0.33;;
4365;SDS011;2196;47.422;9.656;2023-04-15T00:08:05;0.73;;;0.30;;
4365;SDS011;2196;47.422;9.656;2023-04-15T00:10:33;1.20;;;0.20;;
4365;SDS011;2196;47.422;9.656;2023-04-15T00:13:00;1.07;;;0.30;;
4365;SDS011;2196;47.422;9.656;2023-04-15T00:15:28;1.83;;;0.60;;
4365;SDS011;2196;47.422;9.656;2023-04-15T00:17:55;0.50;;;0.40;;
4365;SDS011;2196;47.422;9.656;2023-04-15T00:20:22;0.50;;;0.40;;
4365;SDS011;2196;47.422;9.656;2023-04-15T00:22:50;1.43;;;0.20;;
4365;SDS011;2196;47.422;9.656;2023-04-15T00:25:17;2.23;;;0.63;;
4365;SDS011;2196;47.422;9.656;2023-04-15T00:27:46;0.33;;;0.20;;
4365;SDS011;2196;47.422;9.656;2023-04-15T00:30:13;0.50;;;0.23;;
4365;SDS011;2196;47.422;9.656;2023-04-15T00:32:41;1.50;;;0.53;;
4365;SDS011;2196;47.422;9.656;2023-04-15T00:35:08;1.80;;;0.40;;
4365;SDS011;2196;47.422;9.656;2023-04-15T00:37:36;3.93;;;0.40;;
4365;SDS011;2196;47.422;9.656;2023-04-15T00:40:03;2.80;;;0.37;;
4365;SDS011;2196;47.422;9.656;2023-04-15T00:42:33;2.57;;;0.63;;
4365;SDS011;2196;47.422;9.656;2023-04-15T00:45:02;4.43;;;0.40;;
4365;SDS011;2196;47.422;9.656;2023-04-15T00:47:31;4.53;;;0.40;;
4365;SDS011;2196;47.422;9.656;2023-04-15T00:50:01;3.10;;;0.40;;
4365;SDS011;2196;47.422;9.656;2023-04-15T00:52:29;1.70;;;0.50;;
4365;SDS011;2196;47.422;9.656;2023-04-15T00:54:57;2.30;;;0.30;;
4365;SDS011;2196;47.422;9.656;2023-04-15T00:57:24;4.23;;;0.37;;
4365;SDS011;2196;47.422;9.656;2023-04-15T00:59:53;3.40;;;0.23;;
4365;SDS011;2196;47.422;9.656;2023-04-15T01:02:22;0.30;;;0.30;;
4365;SDS011;2196;47.422;9.656;2023-04-15T01:04:49;0.63;;;0.30;;
4365;SDS011;2196;47.422;9.656;2023-04-15T01:07:17;0.30;;;0.30;;
4365;SDS011;2196;47.422;9.656;2023-04-15T01:09:44;1.63;;;0.20;;
4365;SDS011;2196;47.422;9.656;2023-04-15T01:12:12;0.20;;;0.20;;
4365;SDS011;2196;47.422;9.656;2023-04-15T01:14:41;0.80;;;0.27;;
4365;SDS011;2196;47.422;9.656;2023-04-15T01:17:08;0.70;;;0.20;;
4365;SDS011;2196;47.422;9.656;2023-04-15T01:19:37;1.33;;;0.30;;
4365;SDS011;2196;47.422;9.656;2023-04-15T01:22:04;0.43;;;0.20;;
4365;SDS011;2196;47.422;9.656;2023-04-15T01:24:31;1.83;;;0.50;;
4365;SDS011;2196;47.422;9.656;2023-04-15T01:27:00;1.17;;;0.37;;
4365;SDS011;2196;47.422;9.656;2023-04-15T01:29:28;1.57;;;0.30;;
4365;SDS011;2196;47.422;9.656;2023-04-15T01:31:55;1.33;;;0.40;;
4365;SDS011;2196;47.422;9.656;2023-04-15T01:34:22;1.50;;;0.60;;
4365;SDS011;2196;47.422;9.656;2023-04-15T01:36:49;1.63;;;0.60;;
4365;SDS011;2196;47.422;9.656;2023-04-15T01:39:16;1.23;;;0.50;;
4365;SDS011;2196;47.422;9.656;2023-04-15T01:41:43;0.60;;;0.30;;
4365;SDS011;2196;47.422;9.656;2023-04-15T01:44:12;1.40;;;0.40;;
4365;SDS011;2196;47.422;9.656;2023-04-15T01:46:38;3.67;;;0.53;;
4365;SDS011;2196;47.422;9.656;2023-04-15T01:49:06;1.27;;;0.40;;
4365;SDS011;2196;47.422;9.656;2023-04-15T01:51:33;1.03;;;0.30;;
4365;SDS011;2196;47.422;9.656;2023-04-15T01:53:59;1.03;;;0.40;;
4365;SDS011;2196;47.422;9.656;2023-04-15T01:56:26;2.00;;;0.43;;
4365;SDS011;2196;47.422;9.656;2023-04-15T01:58:53;1.13;;;0.40;;
4365;SDS011;2196;47.422;9.656;2023-04-15T02:01:22;1.87;;;0.50;;
4365;SDS011;2196;47.422;9.656;2023-04-15T02:03:49;6.47;;;0.70;;
4365;SDS011;2196;47.422;9.656;2023-04-15T02:06:16;0.40;;;0.30;;
4365;SDS011;2196;47.422;9.656;2023-04-15T02:08:43;0.50;;;0.30;;
4365;SDS011;2196;47.422;9.656;2023-04-15T02:11:10;0.50;;;0.50;;
4365;SDS011;2196;47.422;9.656;2023-04-15T02:13:37;0.93;;;0.40;;
4365;SDS011;2196;47.422;9.656;2023-04-15T02:16:04;1.40;;;0.37;;
4365;SDS011;2196;47.422;9.656;2023-04-15T02:18:44;1.33;;;0.53;;
4365;SDS011;2196;47.422;9.656;2023-04-15T02:21:11;0.57;;;0.50;;
4365;SDS011;2196;47.422;9.656;2023-04-15T02:23:38;1.03;;;0.30;;
4365;SDS011;2196;47.422;9.656;2023-04-15T02:26:05;0.73;;;0.20;;
4365;SDS011;2196;47.422;9.656;2023-04-15T02:28:33;1.53;;;0.33;;
4365;SDS011;2196;47.422;9.656;2023-04-15T02:31:03;0.50;;;0.30;;
4365;SDS011;2196;47.422;9.656;2023-04-15T02:33:31;0.20;;;0.20;;
4365;SDS011;2196;47.422;9.656;2023-04-15T02:35:59;1.23;;;0.47;;
4365;SDS011;2196;47.422;9.656;2023-04-15T02:38:26;0.50;;;0.20;;
4365;SDS011;2196;47.422;9.656;2023-04-15T02:40:53;0.77;;;0.27;;
4365;SDS011;2196;47.422;9.656;2023-04-15T02:43:20;0.53;;;0.33;;
4365;SDS011;2196;47.422;9.656;2023-04-15T02:45:47;0.77;;;0.50;;
4365;SDS011;2196;47.422;9.656;2023-04-15T02:48:15;0.40;;;0.40;;
4365;SDS011;2196;47.422;9.656;2023-04-15T02:50:44;0.60;;;0.40;;
4365;SDS011;2196;47.422;9.656;2023-04-15T02:53:13;0.20;;;0.20;;
4365;SDS011;2196;47.422;9.656;2023-04-15T02:55:40;2.47;;;0.50;;
4365;SDS011;2196;47.422;9.656;2023-04-15T02:58:07;1.77;;;0.70;;
4365;SDS011;2196;47.422;9.656;2023-04-15T03:00:34;0.50;;;0.50;;
4365;SDS011;2196;47.422;9.656;2023-04-15T03:03:01;1.33;;;0.40;;
4365;SDS011;2196;47.422;9.656;2023-04-15T03:05:29;2.50;;;0.30;;
4365;SDS011;2196;47.422;9.656;2023-04-15T03:07:56;0.70;;;0.30;;
4365;SDS011;2196;47.422;9.656;2023-04-15T03:10:26;1.43;;;0.20;;
4365;SDS011;2196;47.422;9.656;2023-04-15T03:12:53;0.43;;;0.20;;
4365;SDS011;2196;47.422;9.656;2023-04-15T03:15:20;1.17;;;0.50;;
4365;SDS011;2196;47.422;9.656;2023-04-15T03:17:47;0.50;;;0.40;;
4365;SDS011;2196;47.422;9.656;2023-04-15T03:20:14;2.70;;;0.80;;
4365;SDS011;2196;47.422;9.656;2023-04-15T03:22:41;1.93;;;0.60;;
4365;SDS011;2196;47.422;9.656;2023-04-15T03:25:08;2.13;;;0.43;;
4365;SDS011;2196;47.422;9.656;2023-04-15T03:27:38;1.60;;;0.33;;
4365;SDS011;2196;47.422;9.656;2023-04-15T03:30:05;4.83;;;0.50;;
4365;SDS011;2196;47.422;9.656;2023-04-15T03:35:55;0.50;;;0.50;;
4365;SDS011;2196;47.422;9.656;2023-04-15T03:38:22;0.87;;;0.40;;
4365;SDS011;2196;47.422;9.656;2023-04-15T03:40:49;2.50;;;0.80;;
4365;SDS011;2196;47.422;9.656;2023-04-15T03:43:17;0.30;;;0.30;;
4365;SDS011;2196;47.422;9.656;2023-04-15T03:45:44;0.80;;;0.80;;
4365;SDS011;2196;47.422;9.656;2023-04-15T03:48:11;1.73;;;0.40;;
4365;SDS011;2196;47.422;9.656;2023-04-15T03:50:38;3.23;;;0.40;;
4365;SDS011;2196;47.422;9.656;2023-04-15T03:53:05;3.30;;;0.87;;
4365;SDS011;2196;47.422;9.656;2023-04-15T03:55:32;1.40;;;0.40;;
4365;SDS011;2196;47.422;9.656;2023-04-15T03:57:59;3.30;;;0.40;;
4365;SDS011;2196;47.422;9.656;2023-04-15T04:00:28;0.60;;;0.60;;
4365;SDS011;2196;47.422;9.656;2023-04-15T04:02:55;2.40;;;0.20;;
4365;SDS011;2196;47.422;9.656;2023-04-15T04:05:22;0.47;;;0.40;;
4365;SDS011;2196;47.422;9.656;2023-04-15T04:07:49;1.90;;;0.40;;
4365;SDS011;2196;47.422;9.656;2023-04-15T04:10:16;1.50;;;0.30;;
4365;SDS011;2196;47.422;9.656;2023-04-15T04:12:43;2.10;;;0.40;;
4365;SDS011;2196;47.422;9.656;2023-04-15T04:15:10;1.37;;;0.30;;
4365;SDS011;2196;47.422;9.656;2023-04-15T04:17:39;0.30;;;0.20;;
4365;SDS011;2196;47.422;9.656;2023-04-15T04:20:06;1.37;;;0.43;;
4365;SDS011;2196;47.422;9.656;2023-04-15T04:22:36;1.13;;;0.20;;
4365;SDS011;2196;47.422;9.656;2023-04-15T04:25:04;6.03;;;0.50;;
4365;SDS011;2196;47.422;9.656;2023-04-15T04:27:32;0.87;;;0.20;;
4365;SDS011;2196;47.422;9.656;2023-04-15T04:29:59;0.93;;;0.43;;
4365;SDS011;2196;47.422;9.656;2023-04-15T04:32:26;2.10;;;0.40;;
4365;SDS011;2196;47.422;9.656;2023-04-15T04:34:55;0.90;;;0.30;;
4365;SDS011;2196;47.422;9.656;2023-04-15T04:37:22;4.07;;;0.50;;
4365;SDS011;2196;47.422;9.656;2023-04-15T04:39:49;1.37;;;0.47;;
4365;SDS011;2196;47.422;9.656;2023-04-15T04:42:16;0.60;;;0.60;;
4365;SDS011;2196;47.422;9.656;2023-04-15T04:44:43;4.67;;;0.77;;
4365;SDS011;2196;47.422;9.656;2023-04-15T04:47:10;0.33;;;0.30;;
4365;SDS011;2196;47.422;9.656;2023-04-15T04:49:38;0.93;;;0.30;;
4365;SDS011;2196;47.422;9.656;2023-04-15T04:52:06;0.70;;;0.40;;
4365;SDS011;2196;47.422;9.656;2023-04-15T04:54:33;1.50;;;0.50;;
4365;SDS011;2196;47.422;9.656;2023-04-15T04:57:00;0.30;;;0.30;;
4365;SDS011;2196;47.422;9.656;2023-04-15T04:59:27;0.43;;;0.43;;
4365;SDS011;2196;47.422;9.656;2023-04-15T05:01:54;0.73;;;0.23;;
4365;SDS011;2196;47.422;9.656;2023-04-15T05:04:21;0.70;;;0.30;;
4365;SDS011;2196;47.422;9.656;2023-04-15T05:06:48;2.40;;;0.50;;
4365;SDS011;2196;47.422;9.656;2023-04-15T05:09:16;4.33;;;0.97;;
4365;SDS011;2196;47.422;9.656;2023-04-15T05:11:43;2.53;;;0.40;;
4365;SDS011;2196;47.422;9.656;2023-04-15T05:14:10;0.60;;;0.43;;
4365;SDS011;2196;47.422;9.656;2023-04-15T05:16:37;1.67;;;0.70;;
4365;SDS011;2196;47.422;9.656;2023-04-15T05:19:04;2.10;;;0.40;;
4365;SDS011;2196;47.422;9.656;2023-04-15T05:21:31;0.40;;;0.40;;
4365;SDS011;2196;47.422;9.656;2023-04-15T05:23:58;2.47;;;0.50;;
4365;SDS011;2196;47.422;9.656;2023-04-15T05:26:27;0.30;;;0.20;;
4365;SDS011;2196;47.422;9.656;2023-04-15T05:28:54;1.90;;;0.47;;
4365;SDS011;2196;47.422;9.656;2023-04-15T05:31:20;0.67;;;0.30;;
4365;SDS011;2196;47.422;9.656;2023-04-15T05:33:47;0.33;;;0.33;;
4365;SDS011;2196;47.422;9.656;2023-04-15T05:36:14;5.20;;;0.40;;
4365;SDS011;2196;47.422;9.656;2023-04-15T05:38:41;1.13;;;0.53;;
4365;SDS011;2196;47.422;9.656;2023-04-15T05:41:08;0.77;;;0.43;;
4365;SDS011;2196;47.422;9.656;2023-04-15T05:43:37;0.70;;;0.30;;
4365;SDS011;2196;47.422;9.656;2023-04-15T05:46:05;3.13;;;0.70;;
4365;SDS011;2196;47.422;9.656;2023-04-15T05:48:32;0.73;;;0.30;;
4365;SDS011;2196;47.422;9.656;2023-04-15T05:50:59;4.13;;;0.30;;
4365;SDS011;2196;47.422;9.656;2023-04-15T05:53:26;0.33;;;0.30;;
4365;SDS011;2196;47.422;9.656;2023-04-15T05:55:53;1.70;;;0.23;;
4365;SDS011;2196;47.422;9.656;2023-04-15T05:58:21;1.63;;;0.40;;
4365;SDS011;2196;47.422;9.656;2023-04-15T06:00:49;0.30;;;0.30;;
4365;SDS011;2196;47.422;9.656;2023-04-15T06:03:16;0.93;;;0.27;;
4365;SDS011;2196;47.422;9.656;2023-04-15T06:05:43;0.83;;;0.40;;
4365;SDS011;2196;47.422;9.656;2023-04-15T06:08:10;0.30;;;0.30;;
4365;SDS011;2196;47.422;9.656;2023-04-15T06:10:37;2.00;;;0.57;;
4365;SDS011;2196;47.422;9.656;2023-04-15T06:13:04;1.57;;;0.47;;
4365;SDS011;2196;47.422;9.656;2023-04-15T06:15:32;1.57;;;0.60;;
4365;SDS011;2196;47.422;9.656;2023-04-15T06:18:00;0.40;;;0.40;;
4365;SDS011;2196;47.422;9.656;2023-04-15T06:20:27;0.40;;;0.40;;
4365;SDS011;2196;47.422;9.656;2023-04-15T06:22:54;4.83;;;3.87;;
4365;SDS011;2196;47.422;9.656;2023-04-15T06:25:22;2.33;;;1.97;;
4365;SDS011;2196;47.422;9.656;2023-04-15T06:27:49;1.50;;;1.40;;
4365;SDS011;2196;47.422;9.656;2023-04-15T06:30:16;1.33;;;0.60;;
4365;SDS011;2196;47.422;9.656;2023-04-15T06:32:43;2.40;;;0.60;;
4365;SDS011;2196;47.422;9.656;2023-04-15T06:35:11;0.57;;;0.50;;
4365;SDS011;2196;47.422;9.656;2023-04-15T06:37:38;2.30;;;0.80;;
4365;SDS011;2196;47.422;9.656;2023-04-15T06:40:06;1.20;;;0.37;;
4365;SDS011;2196;47.422;9.656;2023-04-15T06:42:34;0.40;;;0.40;;
4365;SDS011;2196;47.422;9.656;2023-04-15T06:45:02;0.93;;;0.90;;
4365;SDS011;2196;47.422;9.656;2023-04-15T06:47:30;2.67;;;0.70;;
4365;SDS011;2196;47.422;9.656;2023-04-15T06:49:59;3.13;;;0.90;;
4365;SDS011;2196;47.422;9.656;2023-04-15T06:52:29;1.77;;;0.73;;
4365;SDS011;2196;47.422;9.656;2023-04-15T06:54:56;2.87;;;0.50;;
4365;SDS011;2196;47.422;9.656;2023-04-15T06:57:23;1.90;;;0.70;;
4365;SDS011;2196;47.422;9.656;2023-04-15T06:59:50;0.93;;;0.70;;
4365;SDS011;2196;47.422;9.656;2023-04-15T07:02:18;0.73;;;0.50;;
4365;SDS011;2196;47.422;9.656;2023-04-15T07:04:45;5.30;;;0.70;;
4365;SDS011;2196;47.422;9.656;2023-04-15T07:07:12;3.60;;;0.70;;
4365;SDS011;2196;47.422;9.656;2023-04-15T07:09:42;2.70;;;1.47;;
4365;SDS011;2196;47.422;9.656;2023-04-15T07:12:10;0.87;;;0.70;;
4365;SDS011;2196;47.422;9.656;2023-04-15T07:14:37;3.93;;;0.73;;
4365;SDS011;2196;47.422;9.656;2023-04-15T07:17:04;0.80;;;0.50;;
4365;SDS011;2196;47.422;9.656;2023-04-15T07:19:31;1.13;;;0.80;;
4365;SDS011;2196;47.422;9.656;2023-04-15T07:21:58;0.77;;;0.60;;
4365;SDS011;2196;47.422;9.656;2023-04-15T07:24:25;1.30;;;0.70;;
4365;SDS011;2196;47.422;9.656;2023-04-15T07:26:54;1.50;;;0.60;;
4365;SDS011;2196;47.422;9.656;2023-04-15T07:29:21;1.53;;;0.60;;
4365;SDS011;2196;47.422;9.656;2023-04-15T07:31:48;3.80;;;0.60;;
4365;SDS011;2196;47.422;9.656;2023-04-15T07:34:15;2.00;;;0.70;;
4365;SDS011;2196;47.422;9.656;2023-04-15T07:36:44;3.67;;;0.70;;
4365;SDS011;2196;47.422;9.656;2023-04-15T07:39:14;0.90;;;0.50;;
4365;SDS011;2196;47.422;9.656;2023-04-15T07:41:41;1.70;;;0.40;;
4365;SDS011;2196;47.422;9.656;2023-04-15T07:44:10;0.43;;;0.40;;
4365;SDS011;2196;47.422;9.656;2023-04-15T07:46:37;1.77;;;0.67;;
4365;SDS011;2196;47.422;9.656;2023-04-15T07:49:04;0.63;;;0.60;;
4365;SDS011;2196;47.422;9.656;2023-04-15T07:51:31;2.30;;;1.23;;
4365;SDS011;2196;47.422;9.656;2023-04-15T07:53:58;2.23;;;0.83;;
4365;SDS011;2196;47.422;9.656;2023-04-15T07:56:25;0.40;;;0.40;;
4365;SDS011;2196;47.422;9.656;2023-04-15T07:58:52;2.97;;;0.70;;
4365;SDS011;2196;47.422;9.656;2023-04-15T08:01:20;0.50;;;0.50;;
4365;SDS011;2196;47.422;9.656;2023-04-15T08:03:47;1.90;;;0.43;;
4365;SDS011;2196;47.422;9.656;2023-04-15T08:06:14;1.00;;;0.70;;
4365;SDS011;2196;47.422;9.656;2023-04-15T08:08:41;1.90;;;0.80;;
4365;SDS011;2196;47.422;9.656;2023-04-15T08:11:08;0.83;;;0.53;;
4365;SDS011;2196;47.422;9.656;2023-04-15T08:13:37;1.10;;;0.50;;
4365;SDS011;2196;47.422;9.656;2023-04-15T08:16:15;1.03;;;0.70;;
4365;SDS011;2196;47.422;9.656;2023-04-15T08:18:45;1.70;;;1.10;;
4365;SDS011;2196;47.422;9.656;2023-04-15T08:21:13;0.80;;;0.57;;
4365;SDS011;2196;47.422;9.656;2023-04-15T08:23:41;0.93;;;0.73;;
4365;SDS011;2196;47.422;9.656;2023-04-15T08:26:08;0.57;;;0.50;;
4365;SDS011;2196;47.422;9.656;2023-04-15T08:28:36;2.93;;;0.97;;
4365;SDS011;2196;47.422;9.656;2023-04-15T08:31:04;0.50;;;0.50;;
4365;SDS011;2196;47.422;9.656;2023-04-15T08:33:31;3.13;;;0.60;;
4365;SDS011;2196;47.422;9.656;2023-04-15T08:36:00;0.57;;;0.43;;
4365;SDS011;2196;47.422;9.656;2023-04-15T08:38:27;1.60;;;0.40;;
4365;SDS011;2196;47.422;9.656;2023-04-15T08:40:54;2.33;;;0.50;;
4365;SDS011;2196;47.422;9.656;2023-04-15T08:43:23;0.70;;;0.40;;
4365;SDS011;2196;47.422;9.656;2023-04-15T08:45:54;2.10;;;0.50;;
4365;SDS011;2196;47.422;9.656;2023-04-15T08:48:24;1.10;;;0.60;;
4365;SDS011;2196;47.422;9.656;2023-04-15T08:50:54;0.50;;;0.50;;
4365;SDS011;2196;47.422;9.656;2023-04-15T08:53:23;2.67;;;0.50;;
4365;SDS011;2196;47.422;9.656;2023-04-15T08:55:51;2.50;;;0.70;;
4365;SDS011;2196;47.422;9.656;2023-04-15T08:58:20;1.60;;;0.43;;
4365;SDS011;2196;47.422;9.656;2023-04-15T09:00:47;3.73;;;0.43;;
4365;SDS011;2196;47.422;9.656;2023-04-15T09:03:14;1.50;;;0.80;;
4365;SDS011;2196;47.422;9.656;2023-04-15T09:05:43;1.47;;;0.40;;
4365;SDS011;2196;47.422;9.656;2023-04-15T09:08:11;1.37;;;0.90;;
4365;SDS011;2196;47.422;9.656;2023-04-15T09:10:39;1.20;;;0.50;;
4365;SDS011;2196;47.422;9.656;2023-04-15T09:13:06;1.70;;;0.50;;
4365;SDS011;2196;47.422;9.656;2023-04-15T09:15:33;1.97;;;0.30;;
4365;SDS011;2196;47.422;9.656;2023-04-15T09:18:04;1.57;;;0.50;;
4365;SDS011;2196;47.422;9.656;2023-04-15T09:20:38;2.00;;;0.50;;
4365;SDS011;2196;47.422;9.656;2023-04-15T09:23:12;1.27;;;0.40;;
4365;SDS011;2196;47.422;9.656;2023-04-15T09:25:43;0.97;;;0.50;;
4365;SDS011;2196;47.422;9.656;2023-04-15T09:28:10;0.70;;;0.30;;
4365;SDS011;2196;47.422;9.656;2023-04-15T09:30:37;0.63;;;0.47;;
4365;SDS011;2196;47.422;9.656;2023-04-15T09:33:10;2.03;;;0.57;;
4365;SDS011;2196;47.422;9.656;2023-04-15T09:35:40;0.13;;;0.13;;
4365;SDS011;2196;47.422;9.656;2023-04-15T09:38:08;0.80;;;0.20;;
4365;SDS011;2196;47.422;9.656;2023-04-15T09:40:36;3.47;;;2.00;;
4365;SDS011;2196;47.422;9.656;2023-04-15T09:43:05;0.80;;;0.40;;
4365;SDS011;2196;47.422;9.656;2023-04-15T09:45:33;0.10;;;0.10;;
4365;SDS011;2196;47.422;9.656;2023-04-15T09:48:13;0.20;;;0.20;;
4365;SDS011;2196;47.422;9.656;2023-04-15T09:50:42;0.77;;;0.40;;
4365;SDS011;2196;47.422;9.656;2023-04-15T09:53:09;10.30;;;0.40;;
4365;SDS011;2196;47.422;9.656;2023-04-15T09:55:37;0.47;;;0.13;;
4365;SDS011;2196;47.422;9.656;2023-04-15T09:58:08;0.63;;;0.30;;
4365;SDS011;2196;47.422;9.656;2023-04-15T10:00:43;0.40;;;0.30;;
4365;SDS011;2196;47.422;9.656;2023-04-15T10:03:12;1.20;;;0.23;;
4365;SDS011;2196;47.422;9.656;2023-04-15T10:05:43;0.23;;;0.20;;
4365;SDS011;2196;47.422;9.656;2023-04-15T10:08:12;0.67;;;0.20;;
4365;SDS011;2196;47.422;9.656;2023-04-15T10:10:41;1.07;;;0.10;;
4365;SDS011;2196;47.422;9.656;2023-04-15T10:13:11;0.23;;;0.10;;
4365;SDS011;2196;47.422;9.656;2023-04-15T10:15:39;0.30;;;0.20;;
4365;SDS011;2196;47.422;9.656;2023-04-15T10:18:09;0.73;;;0.30;;
4365;SDS011;2196;47.422;9.656;2023-04-15T10:20:39;1.47;;;0.13;;
4365;SDS011;2196;47.422;9.656;2023-04-15T10:23:08;1.70;;;1.17;;
4365;SDS011;2196;47.422;9.656;2023-04-15T10:25:36;0.43;;;0.30;;
4365;SDS011;2196;47.422;9.656;2023-04-15T10:28:04;0.20;;;0.20;;
4365;SDS011;2196;47.422;9.656;2023-04-15T10:30:33;0.40;;;0.20;;
4365;SDS011;2196;47.422;9.656;2023-04-15T10:33:01;0.20;;;0.20;;
4365;SDS011;2196;47.422;9.656;2023-04-15T10:35:29;0.73;;;0.20;;
4365;SDS011;2196;47.422;9.656;2023-04-15T10:37:57;0.30;;;0.30;;
4365;SDS011;2196;47.422;9.656;2023-04-15T10:40:26;0.40;;;0.40;;
4365;SDS011;2196;47.422;9.656;2023-04-15T10:42:56;0.80;;;0.30;;
4365;SDS011;2196;47.422;9.656;2023-04-15T10:45:24;0.70;;;0.20;;
4365;SDS011;2196;47.422;9.656;2023-04-15T10:47:57;0.80;;;0.20;;
4365;SDS011;2196;47.422;9.656;2023-04-15T10:50:29;0.30;;;0.20;;
4365;SDS011;2196;47.422;9.656;2023-04-15T10:52:57;2.40;;;0.60;;
4365;SDS011;2196;47.422;9.656;2023-04-15T10:55:25;1.47;;;0.50;;
4365;SDS011;2196;47.422;9.656;2023-04-15T10:57:52;1.30;;;0.37;;
4365;SDS011;2196;47.422;9.656;2023-04-15T11:00:23;0.87;;;0.50;;
4365;SDS011;2196;47.422;9.656;2023-04-15T11:02:52;1.23;;;0.73;;
4365;SDS011;2196;47.422;9.656;2023-04-15T11:05:22;0.73;;;0.50;;
4365;SDS011;2196;47.422;9.656;2023-04-15T11:08:16;1.70;;;0.43;;
4365;SDS011;2196;47.422;9.656;2023-04-15T11:10:52;1.87;;;0.63;;
4365;SDS011;2196;47.422;9.656;2023-04-15T11:13:23;1.60;;;0.77;;
4365;SDS011;2196;47.422;9.656;2023-04-15T11:15:54;2.20;;;0.70;;
4365;SDS011;2196;47.422;9.656;2023-04-15T11:18:25;0.83;;;0.33;;
4365;SDS011;2196;47.422;9.656;2023-04-15T11:20:56;1.13;;;0.77;;
4365;SDS011;2196;47.422;9.656;2023-04-15T11:23:29;2.30;;;0.40;;
4365;SDS011;2196;47.422;9.656;2023-04-15T11:25:57;0.83;;;0.70;;
4365;SDS011;2196;47.422;9.656;2023-04-15T11:28:26;2.23;;;0.50;;
4365;SDS011;2196;47.422;9.656;2023-04-15T11:30:53;2.33;;;0.73;;
4365;SDS011;2196;47.422;9.656;2023-04-15T11:33:21;2.03;;;0.60;;
4365;SDS011;2196;47.422;9.656;2023-04-15T11:35:49;0.90;;;0.50;;
4365;SDS011;2196;47.422;9.656;2023-04-15T11:38:19;2.00;;;0.50;;
4365;SDS011;2196;47.422;9.656;2023-04-15T11:40:46;2.43;;;0.70;;
4365;SDS011;2196;47.422;9.656;2023-04-15T11:43:15;1.80;;;0.40;;
4365;SDS011;2196;47.422;9.656;2023-04-15T11:45:48;1.90;;;0.53;;
4365;SDS011;2196;47.422;9.656;2023-04-15T11:48:17;0.87;;;0.60;;
4365;SDS011;2196;47.422;9.656;2023-04-15T11:50:44;1.40;;;0.87;;
4365;SDS011;2196;47.422;9.656;2023-04-15T11:53:12;0.70;;;0.40;;
4365;SDS011;2196;47.422;9.656;2023-04-15T11:55:41;2.77;;;1.17;;
4365;SDS011;2196;47.422;9.656;2023-04-15T11:58:11;1.07;;;0.77;;
4365;SDS011;2196;47.422;9.656;2023-04-15T12:00:39;3.30;;;0.97;;
4365;SDS011;2196;47.422;9.656;2023-04-15T12:03:13;3.10;;;0.60;;
4365;SDS011;2196;47.422;9.656;2023-04-15T12:08:47;2.60;;;0.80;;
4365;SDS011;2196;47.422;9.656;2023-04-15T12:11:29;1.70;;;0.60;;
4365;SDS011;2196;47.422;9.656;2023-04-15T12:14:05;1.40;;;0.80;;
4365;SDS011;2196;47.422;9.656;2023-04-15T12:16:38;3.17;;;0.77;;
4365;SDS011;2196;47.422;9.656;2023-04-15T12:19:08;2.37;;;0.50;;
4365;SDS011;2196;47.422;9.656;2023-04-15T12:21:36;1.00;;;0.50;;
4365;SDS011;2196;47.422;9.656;2023-04-15T12:24:05;1.50;;;0.50;;
4365;SDS011;2196;47.422;9.656;2023-04-15T12:26:35;3.63;;;0.80;;
4365;SDS011;2196;47.422;9.656;2023-04-15T12:29:04;0.80;;;0.53;;
4365;SDS011;2196;47.422;9.656;2023-04-15T12:31:32;0.50;;;0.50;;
4365;SDS011;2196;47.422;9.656;2023-04-15T12:33:59;1.60;;;0.50;;
4365;SDS011;2196;47.422;9.656;2023-04-15T12:36:27;1.77;;;0.60;;
4365;SDS011;2196;47.422;9.656;2023-04-15T12:38:57;1.87;;;0.53;;
4365;SDS011;2196;47.422;9.656;2023-04-15T12:41:24;0.60;;;0.60;;
4365;SDS011;2196;47.422;9.656;2023-04-15T12:43:52;0.70;;;0.53;;
4365;SDS011;2196;47.422;9.656;2023-04-15T12:46:19;1.90;;;0.90;;
4365;SDS011;2196;47.422;9.656;2023-04-15T12:48:46;1.37;;;0.53;;
4365;SDS011;2196;47.422;9.656;2023-04-15T12:51:13;3.70;;;0.60;;
4365;SDS011;2196;47.422;9.656;2023-04-15T12:53:40;0.70;;;0.70;;
4365;SDS011;2196;47.422;9.656;2023-04-15T12:56:08;2.33;;;1.17;;
4365;SDS011;2196;47.422;9.656;2023-04-15T12:58:35;1.07;;;0.50;;
4365;SDS011;2196;47.422;9.656;2023-04-15T13:01:03;2.03;;;1.17;;
4365;SDS011;2196;47.422;9.656;2023-04-15T13:03:30;2.67;;;1.33;;
4365;SDS011;2196;47.422;9.656;2023-04-15T13:05:57;1.90;;;0.70;;
4365;SDS011;2196;47.422;9.656;2023-04-15T13:08:26;3.23;;;1.63;;
4365;SDS011;2196;47.422;9.656;2023-04-15T13:10:53;1.40;;;0.77;;
4365;SDS011;2196;47.422;9.656;2023-04-15T13:13:20;1.10;;;0.90;;
4365;SDS011;2196;47.422;9.656;2023-04-15T13:15:47;2.80;;;1.30;;
4365;SDS011;2196;47.422;9.656;2023-04-15T13:18:16;0.93;;;0.70;;
4365;SDS011;2196;47.422;9.656;2023-04-15T13:20:42;0.80;;;0.70;;
4365;SDS011;2196;47.422;9.656;2023-04-15T13:23:10;3.17;;;0.70;;
4365;SDS011;2196;47.422;9.656;2023-04-15T13:25:37;2.37;;;0.90;;
4365;SDS011;2196;47.422;9.656;2023-04-15T13:28:04;1.63;;;0.50;;
4365;SDS011;2196;47.422;9.656;2023-04-15T13:30:31;2.43;;;0.60;;
4365;SDS011;2196;47.422;9.656;2023-04-15T13:32:58;3.30;;;1.20;;
4365;SDS011;2196;47.422;9.656;2023-04-15T13:35:26;2.00;;;1.23;;
4365;SDS011;2196;47.422;9.656;2023-04-15T13:37:53;0.90;;;0.90;;
4365;SDS011;2196;47.422;9.656;2023-04-15T13:40:20;1.83;;;1.40;;
4365;SDS011;2196;47.422;9.656;2023-04-15T13:42:47;1.97;;;1.10;;
4365;SDS011;2196;47.422;9.656;2023-04-15T13:45:14;1.97;;;1.30;;
4365;SDS011;2196;47.422;9.656;2023-04-15T13:47:41;3.17;;;2.63;;
4365;SDS011;2196;47.422;9.656;2023-04-15T13:50:09;3.60;;;2.43;;
4365;SDS011;2196;47.422;9.656;2023-04-15T13:52:37;13.70;;;6.73;;
4365;SDS011;2196;47.422;9.656;2023-04-15T13:55:05;20.23;;;11.57;;
4365;SDS011;2196;47.422;9.656;2023-04-15T13:57:32;26.70;;;14.23;;
4365;SDS011;2196;47.422;9.656;2023-04-15T14:00:00;4.70;;;2.60;;
4365;SDS011;2196;47.422;9.656;2023-04-15T14:02:28;3.77;;;1.00;;
4365;SDS011;2196;47.422;9.656;2023-04-15T14:04:55;1.20;;;0.90;;
4365;SDS011;2196;47.422;9.656;2023-04-15T14:07:22;5.63;;;1.47;;
4365;SDS011;2196;47.422;9.656;2023-04-15T14:09:50;1.80;;;0.60;;
4365;SDS011;2196;47.422;9.656;2023-04-15T14:12:17;4.03;;;0.70;;
4365;SDS011;2196;47.422;9.656;2023-04-15T14:14:44;1.27;;;0.70;;
4365;SDS011;2196;47.422;9.656;2023-04-15T14:17:11;3.30;;;0.87;;
4365;SDS011;2196;47.422;9.656;2023-04-15T14:19:38;2.53;;;0.70;;
4365;SDS011;2196;47.422;9.656;2023-04-15T14:22:05;3.93;;;1.17;;
4365;SDS011;2196;47.422;9.656;2023-04-15T14:24:32;2.60;;;1.00;;
4365;SDS011;2196;47.422;9.656;2023-04-15T14:27:00;2.00;;;1.77;;
4365;SDS011;2196;47.422;9.656;2023-04-15T14:29:28;3.23;;;1.47;;
4365;SDS011;2196;47.422;9.656;2023-04-15T14:31:55;4.53;;;0.90;;
4365;SDS011;2196;47.422;9.656;2023-04-15T14:34:23;3.30;;;1.00;;
4365;SDS011;2196;47.422;9.656;2023-04-15T14:36:50;2.60;;;0.90;;
4365;SDS011;2196;47.422;9.656;2023-04-15T14:39:17;5.40;;;1.70;;
4365;SDS011;2196;47.422;9.656;2023-04-15T14:41:44;2.70;;;1.13;;
4365;SDS011;2196;47.422;9.656;2023-04-15T14:44:13;4.23;;;1.70;;
4365;SDS011;2196;47.422;9.656;2023-04-15T14:46:40;2.70;;;1.43;;
4365;SDS011;2196;47.422;9.656;2023-04-15T14:49:07;1.80;;;1.07;;
4365;SDS011;2196;47.422;9.656;2023-04-15T14:51:34;2.33;;;1.33;;
4365;SDS011;2196;47.422;9.656;2023-04-15T14:54:01;1.27;;;1.00;;
4365;SDS011;2196;47.422;9.656;2023-04-15T14:56:28;2.73;;;0.70;;
4365;SDS011;2196;47.422;9.656;2023-04-15T14:58:56;2.80;;;1.33;;
4365;SDS011;2196;47.422;9.656;2023-04-15T15:01:24;2.10;;;0.43;;
4365;SDS011;2196;47.422;9.656;2023-04-15T15:03:51;2.23;;;0.40;;
4365;SDS011;2196;47.422;9.656;2023-04-15T15:06:19;1.60;;;0.30;;
4365;SDS011;2196;47.422;9.656;2023-04-15T15:08:47;4.50;;;0.67;;
4365;SDS011;2196;47.422;9.656;2023-04-15T15:11:14;5.10;;;0.40;;
4365;SDS011;2196;47.422;9.656;2023-04-15T15:13:41;0.60;;;0.37;;
4365;SDS011;2196;47.422;9.656;2023-04-15T15:16:09;0.40;;;0.40;;
4365;SDS011;2196;47.422;9.656;2023-04-15T15:18:37;1.37;;;0.30;;
4365;SDS011;2196;47.422;9.656;2023-04-15T15:21:04;5.13;;;3.30;;
4365;SDS011;2196;47.422;9.656;2023-04-15T15:23:32;5.67;;;4.07;;
4365;SDS011;2196;47.422;9.656;2023-04-15T15:25:59;7.40;;;5.13;;